San Isidro del General, Costa Rica
Current Conditions -  °F | °C
As of 6:00 AM on Sunday 23 Nov 2014 (Local Time) from MRPV Reporting Station
Clear Clear  
Wind Chill: 66°   Ceiling: Unl
Heat Index: 66°   Visibility: 6mi
Dew Point: 59°   Wind: 8mph
Humidity: 78%   Direction: 120°ESE
Pressure: 29.98"   Gusts: NA
Location:  9.38°N, 83.7°W
Report Text: MRPV 231200Z 12007KT CAVOK 19/15 A2998 NOSIG
Loading
Personal Weather Stations






























Interactive Weather Map New forecast layout! Learn more

10-Day Weather Forecast

Advertisements
Track Severe Weather on mobile